sensor_id;sensor_type;location;lat;lon;timestamp;temperature;humidity
50556;DHT22;36508;52.512;13.450;2023-11-25T00:00:48;1.60;99.90
50556;DHT22;36508;52.512;13.450;2023-11-25T00:03:14;1.60;99.90
50556;DHT22;36508;52.512;13.450;2023-11-25T00:05:41;1.60;99.90
50556;DHT22;36508;52.512;13.450;2023-11-25T00:08:07;1.60;99.90
50556;DHT22;36508;52.512;13.450;2023-11-25T00:10:33;1.60;99.90
50556;DHT22;36508;52.512;13.450;2023-11-25T00:13:00;1.70;99.90
50556;DHT22;36508;52.512;13.450;2023-11-25T00:15:26;1.70;99.90
50556;DHT22;36508;52.512;13.450;2023-11-25T00:17:52;1.70;99.90
50556;DHT22;36508;52.512;13.450;2023-11-25T00:20:20;1.70;99.90
50556;DHT22;36508;52.512;13.450;2023-11-25T00:22:46;1.60;99.90
50556;DHT22;36508;52.512;13.450;2023-11-25T00:25:12;1.60;99.90
50556;DHT22;36508;52.512;13.450;2023-11-25T00:27:39;1.60;99.90
50556;DHT22;36508;52.512;13.450;2023-11-25T00:30:05;1.60;99.90
50556;DHT22;36508;52.512;13.450;2023-11-25T00:32:32;1.60;99.90
50556;DHT22;36508;52.512;13.450;2023-11-25T00:35:07;1.60;99.90
50556;DHT22;36508;52.512;13.450;2023-11-25T00:37:34;1.60;99.90
50556;DHT22;36508;52.512;13.450;2023-11-25T00:40:00;1.60;99.90
50556;DHT22;36508;52.512;13.450;2023-11-25T00:42:26;1.60;99.90
50556;DHT22;36508;52.512;13.450;2023-11-25T00:44:52;1.60;99.90
50556;DHT22;36508;52.512;13.450;2023-11-25T00:47:18;1.60;99.90
50556;DHT22;36508;52.512;13.450;2023-11-25T00:49:46;1.60;99.90
50556;DHT22;36508;52.512;13.450;2023-11-25T00:52:15;1.60;99.90
50556;DHT22;36508;52.512;13.450;2023-11-25T00:54:40;1.60;99.90
50556;DHT22;36508;52.512;13.450;2023-11-25T00:57:06;1.60;99.90
50556;DHT22;36508;52.512;13.450;2023-11-25T00:59:32;1.60;99.90
50556;DHT22;36508;52.512;13.450;2023-11-25T01:01:58;1.60;99.90
50556;DHT22;36508;52.512;13.450;2023-11-25T01:04:24;1.60;99.90
50556;DHT22;36508;52.512;13.450;2023-11-25T01:06:49;1.60;99.90
50556;DHT22;36508;52.512;13.450;2023-11-25T01:09:16;1.60;99.90
50556;DHT22;36508;52.512;13.450;2023-11-25T01:11:43;1.50;99.90
50556;DHT22;36508;52.512;13.450;2023-11-25T01:14:09;1.60;99.90
50556;DHT22;36508;52.512;13.450;2023-11-25T01:16:35;1.60;99.90
50556;DHT22;36508;52.512;13.450;2023-11-25T01:19:01;1.60;99.90
50556;DHT22;36508;52.512;13.450;2023-11-25T01:21:27;1.50;99.90
50556;DHT22;36508;52.512;13.450;2023-11-25T01:23:52;1.60;99.90
50556;DHT22;36508;52.512;13.450;2023-11-25T01:26:18;1.60;99.90
50556;DHT22;36508;52.512;13.450;2023-11-25T01:28:44;1.50;99.90
50556;DHT22;36508;52.512;13.450;2023-11-25T01:31:10;1.50;99.90
50556;DHT22;36508;52.512;13.450;2023-11-25T01:33:37;1.50;99.90
50556;DHT22;36508;52.512;13.450;2023-11-25T01:36:03;1.50;99.90
50556;DHT22;36508;52.512;13.450;2023-11-25T01:38:29;1.60;99.90
50556;DHT22;36508;52.512;13.450;2023-11-25T01:40:55;1.70;99.90
50556;DHT22;36508;52.512;13.450;2023-11-25T01:43:22;1.80;99.90
50556;DHT22;36508;52.512;13.450;2023-11-25T01:45:50;1.80;99.90
50556;DHT22;36508;52.512;13.450;2023-11-25T01:48:16;1.80;99.90
50556;DHT22;36508;52.512;13.450;2023-11-25T01:50:43;1.80;99.90
50556;DHT22;36508;52.512;13.450;2023-11-25T01:53:13;1.80;99.90
50556;DHT22;36508;52.512;13.450;2023-11-25T01:55:40;1.80;99.90
50556;DHT22;36508;52.512;13.450;2023-11-25T01:58:07;1.80;99.90
50556;DHT22;36508;52.512;13.450;2023-11-25T02:00:33;1.80;99.90
50556;DHT22;36508;52.512;13.450;2023-11-25T02:03:03;1.80;99.90
50556;DHT22;36508;52.512;13.450;2023-11-25T02:05:31;1.80;99.90
50556;DHT22;36508;52.512;13.450;2023-11-25T02:07:57;1.90;99.90
50556;DHT22;36508;52.512;13.450;2023-11-25T02:10:23;1.90;99.90
50556;DHT22;36508;52.512;13.450;2023-11-25T02:12:50;1.90;99.90
50556;DHT22;36508;52.512;13.450;2023-11-25T02:15:16;1.90;99.90
50556;DHT22;36508;52.512;13.450;2023-11-25T02:17:41;1.90;99.90
50556;DHT22;36508;52.512;13.450;2023-11-25T02:20:08;1.90;99.90
50556;DHT22;36508;52.512;13.450;2023-11-25T02:22:35;1.90;99.90
50556;DHT22;36508;52.512;13.450;2023-11-25T02:25:05;2.00;99.90
50556;DHT22;36508;52.512;13.450;2023-11-25T02:27:31;2.00;99.90
50556;DHT22;36508;52.512;13.450;2023-11-25T02:29:56;2.00;99.90
50556;DHT22;36508;52.512;13.450;2023-11-25T02:32:22;2.00;99.90
50556;DHT22;36508;52.512;13.450;2023-11-25T02:34:48;2.00;99.90
50556;DHT22;36508;52.512;13.450;2023-11-25T02:37:14;2.00;99.90
50556;DHT22;36508;52.512;13.450;2023-11-25T02:39:42;2.00;99.90
50556;DHT22;36508;52.512;13.450;2023-11-25T02:42:10;1.90;99.90
50556;DHT22;36508;52.512;13.450;2023-11-25T02:44:38;1.90;99.90
50556;DHT22;36508;52.512;13.450;2023-11-25T02:47:03;1.90;99.90
50556;DHT22;36508;52.512;13.450;2023-11-25T02:49:30;1.90;99.90
50556;DHT22;36508;52.512;13.450;2023-11-25T02:51:56;1.90;99.90
50556;DHT22;36508;52.512;13.450;2023-11-25T02:54:24;1.90;99.90
50556;DHT22;36508;52.512;13.450;2023-11-25T02:56:50;1.90;99.90
50556;DHT22;36508;52.512;13.450;2023-11-25T02:59:17;1.90;99.90
50556;DHT22;36508;52.512;13.450;2023-11-25T03:01:46;1.80;99.90
50556;DHT22;36508;52.512;13.450;2023-11-25T03:04:15;1.80;99.90
50556;DHT22;36508;52.512;13.450;2023-11-25T03:06:45;1.80;99.90
50556;DHT22;36508;52.512;13.450;2023-11-25T03:09:11;1.80;99.90
50556;DHT22;36508;52.512;13.450;2023-11-25T03:11:37;1.70;99.90
50556;DHT22;36508;52.512;13.450;2023-11-25T03:14:03;1.70;99.90
50556;DHT22;36508;52.512;13.450;2023-11-25T03:16:31;1.70;99.90
50556;DHT22;36508;52.512;13.450;2023-11-25T03:18:57;1.70;99.90
50556;DHT22;36508;52.512;13.450;2023-11-25T03:21:23;1.80;99.90
50556;DHT22;36508;52.512;13.450;2023-11-25T03:23:50;1.70;99.90
50556;DHT22;36508;52.512;13.450;2023-11-25T03:26:16;1.80;99.90
50556;DHT22;36508;52.512;13.450;2023-11-25T03:28:41;1.70;99.90
50556;DHT22;36508;52.512;13.450;2023-11-25T03:31:08;1.90;99.90
50556;DHT22;36508;52.512;13.450;2023-11-25T03:33:34;1.80;99.90
50556;DHT22;36508;52.512;13.450;2023-11-25T03:36:00;1.80;99.90
50556;DHT22;36508;52.512;13.450;2023-11-25T03:38:26;1.80;99.90
50556;DHT22;36508;52.512;13.450;2023-11-25T03:40:52;1.80;99.90
50556;DHT22;36508;52.512;13.450;2023-11-25T03:43:21;1.80;99.90
50556;DHT22;36508;52.512;13.450;2023-11-25T03:45:48;1.90;99.90
50556;DHT22;36508;52.512;13.450;2023-11-25T03:48:14;1.90;99.90
50556;DHT22;36508;52.512;13.450;2023-11-25T03:50:40;2.00;99.90
50556;DHT22;36508;52.512;13.450;2023-11-25T03:53:06;1.90;99.90
50556;DHT22;36508;52.512;13.450;2023-11-25T03:55:32;1.90;99.90
50556;DHT22;36508;52.512;13.450;2023-11-25T03:58:01;1.90;99.90
50556;DHT22;36508;52.512;13.450;2023-11-25T04:00:28;1.90;99.90
50556;DHT22;36508;52.512;13.450;2023-11-25T04:02:54;1.90;99.90
50556;DHT22;36508;52.512;13.450;2023-11-25T04:05:20;1.90;99.90
50556;DHT22;36508;52.512;13.450;2023-11-25T04:07:46;2.00;99.90
50556;DHT22;36508;52.512;13.450;2023-11-25T04:10:12;2.00;99.90
50556;DHT22;36508;52.512;13.450;2023-11-25T04:12:42;2.00;99.90
50556;DHT22;36508;52.512;13.450;2023-11-25T04:15:12;2.00;99.90
50556;DHT22;36508;52.512;13.450;2023-11-25T04:17:39;1.90;99.90
50556;DHT22;36508;52.512;13.450;2023-11-25T04:20:09;1.90;99.90
50556;DHT22;36508;52.512;13.450;2023-11-25T04:22:46;2.00;99.90
50556;DHT22;36508;52.512;13.450;2023-11-25T04:25:14;2.00;99.90
50556;DHT22;36508;52.512;13.450;2023-11-25T04:27:47;2.00;99.90
50556;DHT22;36508;52.512;13.450;2023-11-25T04:30:16;2.00;99.90
50556;DHT22;36508;52.512;13.450;2023-11-25T04:32:43;2.00;99.90
50556;DHT22;36508;52.512;13.450;2023-11-25T04:35:09;2.00;99.90
50556;DHT22;36508;52.512;13.450;2023-11-25T04:37:35;2.00;99.90
50556;DHT22;36508;52.512;13.450;2023-11-25T04:40:03;2.00;99.90
50556;DHT22;36508;52.512;13.450;2023-11-25T04:42:32;2.00;99.90
50556;DHT22;36508;52.512;13.450;2023-11-25T04:44:58;2.00;99.90
50556;DHT22;36508;52.512;13.450;2023-11-25T04:47:24;2.00;99.90
50556;DHT22;36508;52.512;13.450;2023-11-25T04:49:50;2.10;99.90
50556;DHT22;36508;52.512;13.450;2023-11-25T04:52:17;2.00;99.90
50556;DHT22;36508;52.512;13.450;2023-11-25T04:54:43;2.00;99.90
50556;DHT22;36508;52.512;13.450;2023-11-25T04:57:09;2.10;99.90
50556;DHT22;36508;52.512;13.450;2023-11-25T04:59:36;2.00;99.90
50556;DHT22;36508;52.512;13.450;2023-11-25T05:02:02;2.00;99.90
50556;DHT22;36508;52.512;13.450;2023-11-25T05:04:29;2.00;99.90
50556;DHT22;36508;52.512;13.450;2023-11-25T05:06:56;2.00;99.90
50556;DHT22;36508;52.512;13.450;2023-11-25T05:09:21;2.00;99.90
50556;DHT22;36508;52.512;13.450;2023-11-25T05:11:54;1.90;99.90
50556;DHT22;36508;52.512;13.450;2023-11-25T05:14:20;1.90;99.90
50556;DHT22;36508;52.512;13.450;2023-11-25T05:16:46;1.90;99.90
50556;DHT22;36508;52.512;13.450;2023-11-25T05:19:14;1.90;99.90
50556;DHT22;36508;52.512;13.450;2023-11-25T05:21:41;1.90;99.90
50556;DHT22;36508;52.512;13.450;2023-11-25T05:24:07;1.90;99.90
50556;DHT22;36508;52.512;13.450;2023-11-25T05:26:33;1.90;99.90
50556;DHT22;36508;52.512;13.450;2023-11-25T05:28:58;1.90;99.90
50556;DHT22;36508;52.512;13.450;2023-11-25T05:31:26;1.90;99.90
50556;DHT22;36508;52.512;13.450;2023-11-25T05:33:52;1.90;99.90
50556;DHT22;36508;52.512;13.450;2023-11-25T05:36:18;1.90;99.90
50556;DHT22;36508;52.512;13.450;2023-11-25T05:38:44;1.80;99.90
50556;DHT22;36508;52.512;13.450;2023-11-25T05:41:10;1.90;99.90
50556;DHT22;36508;52.512;13.450;2023-11-25T05:43:41;1.90;99.90
50556;DHT22;36508;52.512;13.450;2023-11-25T05:46:07;1.90;99.90
50556;DHT22;36508;52.512;13.450;2023-11-25T05:48:34;1.80;99.90
50556;DHT22;36508;52.512;13.450;2023-11-25T05:51:00;1.80;99.90
50556;DHT22;36508;52.512;13.450;2023-11-25T05:53:26;1.80;99.90
50556;DHT22;36508;52.512;13.450;2023-11-25T05:55:51;1.70;99.90
50556;DHT22;36508;52.512;13.450;2023-11-25T05:58:17;1.70;99.90
50556;DHT22;36508;52.512;13.450;2023-11-25T06:00:43;1.80;99.90
50556;DHT22;36508;52.512;13.450;2023-11-25T06:03:08;1.70;99.90
50556;DHT22;36508;52.512;13.450;2023-11-25T06:05:34;1.60;99.90
50556;DHT22;36508;52.512;13.450;2023-11-25T06:08:00;1.60;99.90
50556;DHT22;36508;52.512;13.450;2023-11-25T06:10:25;1.60;99.90
50556;DHT22;36508;52.512;13.450;2023-11-25T06:12:51;1.60;99.90
50556;DHT22;36508;52.512;13.450;2023-11-25T06:15:17;1.60;99.90
50556;DHT22;36508;52.512;13.450;2023-11-25T06:17:44;1.60;99.90
50556;DHT22;36508;52.512;13.450;2023-11-25T06:20:11;1.60;99.90
50556;DHT22;36508;52.512;13.450;2023-11-25T06:22:36;1.50;99.90
50556;DHT22;36508;52.512;13.450;2023-11-25T06:25:03;1.50;99.90
50556;DHT22;36508;52.512;13.450;2023-11-25T06:27:30;1.50;99.90
50556;DHT22;36508;52.512;13.450;2023-11-25T06:29:56;1.50;99.90
50556;DHT22;36508;52.512;13.450;2023-11-25T06:32:27;1.50;99.90
50556;DHT22;36508;52.512;13.450;2023-11-25T06:34:53;1.50;99.90
50556;DHT22;36508;52.512;13.450;2023-11-25T06:37:23;1.50;99.90
50556;DHT22;36508;52.512;13.450;2023-11-25T06:39:48;1.50;99.90
50556;DHT22;36508;52.512;13.450;2023-11-25T06:42:14;1.50;99.90
50556;DHT22;36508;52.512;13.450;2023-11-25T06:44:40;1.50;99.90
50556;DHT22;36508;52.512;13.450;2023-11-25T06:47:07;1.50;99.90
50556;DHT22;36508;52.512;13.450;2023-11-25T06:49:33;1.50;99.90
50556;DHT22;36508;52.512;13.450;2023-11-25T06:52:00;1.50;99.90
50556;DHT22;36508;52.512;13.450;2023-11-25T06:54:26;1.50;99.90
50556;DHT22;36508;52.512;13.450;2023-11-25T06:56:52;1.50;99.90
50556;DHT22;36508;52.512;13.450;2023-11-25T06:59:17;1.50;99.90
50556;DHT22;36508;52.512;13.450;2023-11-25T07:01:43;1.50;99.90
50556;DHT22;36508;52.512;13.450;2023-11-25T07:04:09;1.50;99.90
50556;DHT22;36508;52.512;13.450;2023-11-25T07:06:35;1.50;99.90
50556;DHT22;36508;52.512;13.450;2023-11-25T07:09:01;1.50;99.90
50556;DHT22;36508;52.512;13.450;2023-11-25T07:11:27;1.50;99.90
50556;DHT22;36508;52.512;13.450;2023-11-25T07:13:56;1.50;99.90
50556;DHT22;36508;52.512;13.450;2023-11-25T07:16:22;1.50;99.90
50556;DHT22;36508;52.512;13.450;2023-11-25T07:18:48;1.50;99.90
50556;DHT22;36508;52.512;13.450;2023-11-25T07:21:15;1.50;99.90
50556;DHT22;36508;52.512;13.450;2023-11-25T07:23:41;1.50;99.90
50556;DHT22;36508;52.512;13.450;2023-11-25T07:26:09;1.60;99.90
50556;DHT22;36508;52.512;13.450;2023-11-25T07:28:41;1.60;99.90
50556;DHT22;36508;52.512;13.450;2023-11-25T07:31:08;1.60;99.90
50556;DHT22;36508;52.512;13.450;2023-11-25T07:33:35;1.50;99.90
50556;DHT22;36508;52.512;13.450;2023-11-25T07:36:00;1.50;99.90
50556;DHT22;36508;52.512;13.450;2023-11-25T07:38:26;1.50;99.90
50556;DHT22;36508;52.512;13.450;2023-11-25T07:40:53;1.50;99.90
50556;DHT22;36508;52.512;13.450;2023-11-25T07:43:19;1.50;99.90
50556;DHT22;36508;52.512;13.450;2023-11-25T07:45:45;1.50;99.90
50556;DHT22;36508;52.512;13.450;2023-11-25T07:48:11;1.50;99.90
50556;DHT22;36508;52.512;13.450;2023-11-25T07:50:37;1.50;99.90
50556;DHT22;36508;52.512;13.450;2023-11-25T07:53:04;1.50;99.90
50556;DHT22;36508;52.512;13.450;2023-11-25T07:55:30;1.50;99.90
50556;DHT22;36508;52.512;13.450;2023-11-25T07:57:55;1.50;99.90
50556;DHT22;36508;52.512;13.450;2023-11-25T08:00:24;1.50;99.90
50556;DHT22;36508;52.512;13.450;2023-11-25T08:02:51;1.50;99.90
50556;DHT22;36508;52.512;13.450;2023-11-25T08:05:24;1.50;99.90
50556;DHT22;36508;52.512;13.450;2023-11-25T08:07:54;1.50;99.90
50556;DHT22;36508;52.512;13.450;2023-11-25T08:10:23;1.50;99.90
50556;DHT22;36508;52.512;13.450;2023-11-25T08:12:49;1.50;99.90
50556;DHT22;36508;52.512;13.450;2023-11-25T08:15:16;1.50;99.90
50556;DHT22;36508;52.512;13.450;2023-11-25T08:17:43;1.50;99.90
50556;DHT22;36508;52.512;13.450;2023-11-25T08:20:13;1.50;99.90
50556;DHT22;36508;52.512;13.450;2023-11-25T08:22:39;1.60;99.90
50556;DHT22;36508;52.512;13.450;2023-11-25T08:25:06;1.60;99.90
50556;DHT22;36508;52.512;13.450;2023-11-25T08:27:38;1.70;99.90
50556;DHT22;36508;52.512;13.450;2023-11-25T08:30:05;1.60;99.90
50556;DHT22;36508;52.512;13.450;2023-11-25T08:32:34;1.70;99.90
50556;DHT22;36508;52.512;13.450;2023-11-25T08:35:00;1.70;99.90
50556;DHT22;36508;52.512;13.450;2023-11-25T08:37:26;1.80;99.90
50556;DHT22;36508;52.512;13.450;2023-11-25T08:39:54;1.80;99.90
50556;DHT22;36508;52.512;13.450;2023-11-25T08:42:25;1.90;99.90
50556;DHT22;36508;52.512;13.450;2023-11-25T08:44:52;1.90;99.90
50556;DHT22;36508;52.512;13.450;2023-11-25T08:47:18;2.00;99.90
50556;DHT22;36508;52.512;13.450;2023-11-25T08:49:44;2.10;99.90
50556;DHT22;36508;52.512;13.450;2023-11-25T08:52:11;2.20;99.90
50556;DHT22;36508;52.512;13.450;2023-11-25T08:54:38;2.30;99.90
50556;DHT22;36508;52.512;13.450;2023-11-25T08:57:04;2.30;99.90
50556;DHT22;36508;52.512;13.450;2023-11-25T08:59:33;2.40;99.90
50556;DHT22;36508;52.512;13.450;2023-11-25T09:01:58;2.60;99.90
50556;DHT22;36508;52.512;13.450;2023-11-25T09:04:24;2.70;99.90
50556;DHT22;36508;52.512;13.450;2023-11-25T09:06:53;2.80;99.90
50556;DHT22;36508;52.512;13.450;2023-11-25T09:09:24;3.00;99.90
50556;DHT22;36508;52.512;13.450;2023-11-25T09:11:52;3.00;99.90
50556;DHT22;36508;52.512;13.450;2023-11-25T09:14:19;3.00;99.90
50556;DHT22;36508;52.512;13.450;2023-11-25T09:16:46;2.90;99.90
50556;DHT22;36508;52.512;13.450;2023-11-25T09:19:12;3.00;99.90
50556;DHT22;36508;52.512;13.450;2023-11-25T09:21:39;3.20;99.90
50556;DHT22;36508;52.512;13.450;2023-11-25T09:24:06;3.20;99.90
50556;DHT22;36508;52.512;13.450;2023-11-25T09:26:32;3.10;99.90
50556;DHT22;36508;52.512;13.450;2023-11-25T09:29:01;3.20;99.90
50556;DHT22;36508;52.512;13.450;2023-11-25T09:31:27;3.30;99.90
50556;DHT22;36508;52.512;13.450;2023-11-25T09:33:53;3.30;99.90
50556;DHT22;36508;52.512;13.450;2023-11-25T09:36:19;3.30;99.90
50556;DHT22;36508;52.512;13.450;2023-11-25T09:38:47;3.30;99.90
50556;DHT22;36508;52.512;13.450;2023-11-25T09:41:13;3.20;99.90
50556;DHT22;36508;52.512;13.450;2023-11-25T09:43:40;3.20;99.90
50556;DHT22;36508;52.512;13.450;2023-11-25T09:46:06;3.30;99.90
50556;DHT22;36508;52.512;13.450;2023-11-25T09:48:32;3.40;99.90
50556;DHT22;36508;52.512;13.450;2023-11-25T09:51:00;3.60;99.90
50556;DHT22;36508;52.512;13.450;2023-11-25T09:53:29;3.70;99.90
50556;DHT22;36508;52.512;13.450;2023-11-25T09:56:04;3.90;99.90
50556;DHT22;36508;52.512;13.450;2023-11-25T09:58:35;4.10;99.90
50556;DHT22;36508;52.512;13.450;2023-11-25T10:01:02;4.20;99.90
50556;DHT22;36508;52.512;13.450;2023-11-25T10:03:39;4.50;99.90
50556;DHT22;36508;52.512;13.450;2023-11-25T10:06:08;4.60;99.90
50556;DHT22;36508;52.512;13.450;2023-11-25T10:08:34;4.50;99.90
50556;DHT22;36508;52.512;13.450;2023-11-25T10:11:10;4.60;99.90
50556;DHT22;36508;52.512;13.450;2023-11-25T10:13:41;4.60;99.90
50556;DHT22;36508;52.512;13.450;2023-11-25T10:16:12;5.80;99.90
50556;DHT22;36508;52.512;13.450;2023-11-25T10:18:40;7.30;99.90
50556;DHT22;36508;52.512;13.450;2023-11-25T10:21:07;8.60;99.90
50556;DHT22;36508;52.512;13.450;2023-11-25T10:23:34;7.20;99.90
50556;DHT22;36508;52.512;13.450;2023-11-25T10:26:12;5.70;99.90
50556;DHT22;36508;52.512;13.450;2023-11-25T10:28:50;5.00;99.90
50556;DHT22;36508;52.512;13.450;2023-11-25T10:31:25;4.80;99.90
50556;DHT22;36508;52.512;13.450;2023-11-25T10:33:55;4.70;99.90
50556;DHT22;36508;52.512;13.450;2023-11-25T10:36:21;4.50;99.90
50556;DHT22;36508;52.512;13.450;2023-11-25T10:38:47;4.40;99.90
50556;DHT22;36508;52.512;13.450;2023-11-25T10:41:14;4.10;99.90
50556;DHT22;36508;52.512;13.450;2023-11-25T10:43:42;4.20;99.90
50556;DHT22;36508;52.512;13.450;2023-11-25T10:46:09;4.10;99.90
50556;DHT22;36508;52.512;13.450;2023-11-25T10:48:39;4.20;99.90
50556;DHT22;36508;52.512;13.450;2023-11-25T10:51:07;4.20;99.90
50556;DHT22;36508;52.512;13.450;2023-11-25T10:53:37;4.20;99.90
50556;DHT22;36508;52.512;13.450;2023-11-25T10:56:03;4.10;99.90
50556;DHT22;36508;52.512;13.450;2023-11-25T10:58:31;3.90;99.90
50556;DHT22;36508;52.512;13.450;2023-11-25T11:00:58;4.00;99.90
50556;DHT22;36508;52.512;13.450;2023-11-25T11:06:19;4.10;99.90
50556;DHT22;36508;52.512;13.450;2023-11-25T11:08:46;4.00;99.90
50556;DHT22;36508;52.512;13.450;2023-11-25T11:11:16;3.90;99.90
50556;DHT22;36508;52.512;13.450;2023-11-25T11:13:48;3.70;99.90
50556;DHT22;36508;52.512;13.450;2023-11-25T11:16:17;3.70;99.90
50556;DHT22;36508;52.512;13.450;2023-11-25T11:18:49;3.70;99.90
50556;DHT22;36508;52.512;13.450;2023-11-25T11:21:18;3.70;99.90
50556;DHT22;36508;52.512;13.450;2023-11-25T11:23:45;3.80;99.90
50556;DHT22;36508;52.512;13.450;2023-11-25T11:31:53;3.60;99.90
50556;DHT22;36508;52.512;13.450;2023-11-25T11:34:27;3.60;99.90
50556;DHT22;36508;52.512;13.450;2023-11-25T11:36:53;3.70;99.90
50556;DHT22;36508;52.512;13.450;2023-11-25T11:39:54;3.70;99.90
50556;DHT22;36508;52.512;13.450;2023-11-25T11:47:57;3.50;99.90
50556;DHT22;36508;52.512;13.450;2023-11-25T11:50:27;3.60;99.90
50556;DHT22;36508;52.512;13.450;2023-11-25T11:55:51;3.60;99.90
50556;DHT22;36508;52.512;13.450;2023-11-25T11:58:25;3.60;99.90
50556;DHT22;36508;52.512;13.450;2023-11-25T12:01:06;3.60;99.90
50556;DHT22;36508;52.512;13.450;2023-11-25T12:03:35;3.70;99.90
50556;DHT22;36508;52.512;13.450;2023-11-25T12:06:04;3.70;99.90
50556;DHT22;36508;52.512;13.450;2023-11-25T12:08:30;3.70;99.90
50556;DHT22;36508;52.512;13.450;2023-11-25T12:10:57;3.60;99.90
50556;DHT22;36508;52.512;13.450;2023-11-25T12:13:34;3.70;99.90
50556;DHT22;36508;52.512;13.450;2023-11-25T12:16:04;3.80;99.90
50556;DHT22;36508;52.512;13.450;2023-11-25T12:18:35;3.80;99.90
50556;DHT22;36508;52.512;13.450;2023-11-25T12:21:01;3.80;99.90
50556;DHT22;36508;52.512;13.450;2023-11-25T12:23:42;3.80;99.90
50556;DHT22;36508;52.512;13.450;2023-11-25T12:26:35;3.60;99.90
50556;DHT22;36508;52.512;13.450;2023-11-25T12:29:11;3.40;99.90
50556;DHT22;36508;52.512;13.450;2023-11-25T12:31:38;3.30;99.90
50556;DHT22;36508;52.512;13.450;2023-11-25T12:34:04;3.30;99.90
50556;DHT22;36508;52.512;13.450;2023-11-25T12:36:31;3.40;99.90
50556;DHT22;36508;52.512;13.450;2023-11-25T12:38:56;3.40;99.90
50556;DHT22;36508;52.512;13.450;2023-11-25T12:41:23;3.20;99.90
50556;DHT22;36508;52.512;13.450;2023-11-25T12:44:18;3.10;99.90
50556;DHT22;36508;52.512;13.450;2023-11-25T12:47:02;3.10;99.90
50556;DHT22;36508;52.512;13.450;2023-11-25T12:49:33;3.00;99.90
50556;DHT22;36508;52.512;13.450;2023-11-25T12:51:59;3.10;99.90
50556;DHT22;36508;52.512;13.450;2023-11-25T12:54:31;3.10;99.90
50556;DHT22;36508;52.512;13.450;2023-11-25T12:57:07;3.10;99.90
50556;DHT22;36508;52.512;13.450;2023-11-25T12:59:34;3.10;99.90
50556;DHT22;36508;52.512;13.450;2023-11-25T13:02:10;3.00;99.90
50556;DHT22;36508;52.512;13.450;2023-11-25T13:04:52;3.00;99.90
50556;DHT22;36508;52.512;13.450;2023-11-25T13:07:33;3.00;99.90
50556;DHT22;36508;52.512;13.450;2023-11-25T13:09:59;3.00;99.90
50556;DHT22;36508;52.512;13.450;2023-11-25T13:12:29;3.00;99.90
50556;DHT22;36508;52.512;13.450;2023-11-25T13:14:55;2.90;99.90
50556;DHT22;36508;52.512;13.450;2023-11-25T13:17:21;3.00;99.90
50556;DHT22;36508;52.512;13.450;2023-11-25T13:19:47;2.90;99.90
50556;DHT22;36508;52.512;13.450;2023-11-25T13:22:13;3.00;99.90
50556;DHT22;36508;52.512;13.450;2023-11-25T13:24:43;3.00;99.90
50556;DHT22;36508;52.512;13.450;2023-11-25T13:27:09;2.90;99.90
50556;DHT22;36508;52.512;13.450;2023-11-25T13:29:35;2.90;99.90
50556;DHT22;36508;52.512;13.450;2023-11-25T13:32:00;2.90;99.90
50556;DHT22;36508;52.512;13.450;2023-11-25T13:34:27;3.00;99.90
50556;DHT22;36508;52.512;13.450;2023-11-25T13:36:52;3.10;99.90
50556;DHT22;36508;52.512;13.450;2023-11-25T13:39:18;3.20;99.90
50556;DHT22;36508;52.512;13.450;2023-11-25T13:41:48;3.20;99.90
50556;DHT22;36508;52.512;13.450;2023-11-25T13:44:14;3.20;99.90
50556;DHT22;36508;52.512;13.450;2023-11-25T13:46:49;3.10;99.90
50556;DHT22;36508;52.512;13.450;2023-11-25T13:49:14;3.20;99.90
50556;DHT22;36508;52.512;13.450;2023-11-25T13:51:40;3.10;99.90
50556;DHT22;36508;52.512;13.450;2023-11-25T13:54:07;3.10;99.90
50556;DHT22;36508;52.512;13.450;2023-11-25T13:56:35;3.10;99.90
50556;DHT22;36508;52.512;13.450;2023-11-25T13:59:01;3.10;99.90
50556;DHT22;36508;52.512;13.450;2023-11-25T14:01:27;3.10;99.90
50556;DHT22;36508;52.512;13.450;2023-11-25T14:03:54;3.10;99.90
50556;DHT22;36508;52.512;13.450;2023-11-25T14:06:22;3.10;99.90
50556;DHT22;36508;52.512;13.450;2023-11-25T14:08:53;3.10;99.90
50556;DHT22;36508;52.512;13.450;2023-11-25T14:11:19;3.20;99.90
50556;DHT22;36508;52.512;13.450;2023-11-25T14:13:50;3.20;99.90
50556;DHT22;36508;52.512;13.450;2023-11-25T14:16:17;3.20;99.90
50556;DHT22;36508;52.512;13.450;2023-11-25T14:18:43;3.20;99.90
50556;DHT22;36508;52.512;13.450;2023-11-25T14:21:08;3.10;99.90
50556;DHT22;36508;52.512;13.450;2023-11-25T14:23:37;3.10;99.90
50556;DHT22;36508;52.512;13.450;2023-11-25T14:26:03;3.10;99.90
50556;DHT22;36508;52.512;13.450;2023-11-25T14:28:30;3.00;99.90
50556;DHT22;36508;52.512;13.450;2023-11-25T14:30:57;2.90;99.90
50556;DHT22;36508;52.512;13.450;2023-11-25T14:33:22;3.00;99.90
50556;DHT22;36508;52.512;13.450;2023-11-25T14:35:49;3.00;99.90
50556;DHT22;36508;52.512;13.450;2023-11-25T14:38:14;3.00;99.90
50556;DHT22;36508;52.512;13.450;2023-11-25T14:40:41;3.10;99.90
50556;DHT22;36508;52.512;13.450;2023-11-25T14:43:08;3.00;99.90
50556;DHT22;36508;52.512;13.450;2023-11-25T14:45:35;3.10;99.90
50556;DHT22;36508;52.512;13.450;2023-11-25T14:48:00;3.00;99.90
50556;DHT22;36508;52.512;13.450;2023-11-25T14:50:29;3.00;99.90
50556;DHT22;36508;52.512;13.450;2023-11-25T14:52:55;3.00;99.90
50556;DHT22;36508;52.512;13.450;2023-11-25T14:55:23;3.00;99.90
50556;DHT22;36508;52.512;13.450;2023-11-25T14:57:49;2.90;99.90
50556;DHT22;36508;52.512;13.450;2023-11-25T15:00:15;2.90;99.90
50556;DHT22;36508;52.512;13.450;2023-11-25T15:02:41;2.90;99.90
50556;DHT22;36508;52.512;13.450;2023-11-25T15:05:07;2.90;99.90
50556;DHT22;36508;52.512;13.450;2023-11-25T15:07:37;3.10;99.90
50556;DHT22;36508;52.512;13.450;2023-11-25T15:10:03;3.10;99.90
50556;DHT22;36508;52.512;13.450;2023-11-25T15:12:29;3.10;99.90
50556;DHT22;36508;52.512;13.450;2023-11-25T15:14:55;3.10;99.90
50556;DHT22;36508;52.512;13.450;2023-11-25T15:17:22;3.10;99.90
50556;DHT22;36508;52.512;13.450;2023-11-25T15:19:48;3.10;99.90
50556;DHT22;36508;52.512;13.450;2023-11-25T15:22:13;3.10;99.90
50556;DHT22;36508;52.512;13.450;2023-11-25T15:24:39;3.10;99.90
50556;DHT22;36508;52.512;13.450;2023-11-25T15:27:05;3.00;99.90
50556;DHT22;36508;52.512;13.450;2023-11-25T15:29:31;2.90;99.90
50556;DHT22;36508;52.512;13.450;2023-11-25T15:31:56;3.00;99.90
50556;DHT22;36508;52.512;13.450;2023-11-25T15:34:22;3.00;99.90
50556;DHT22;36508;52.512;13.450;2023-11-25T15:36:48;2.90;99.90
50556;DHT22;36508;52.512;13.450;2023-11-25T15:39:16;3.00;99.90
50556;DHT22;36508;52.512;13.450;2023-11-25T15:41:44;3.10;99.90
50556;DHT22;36508;52.512;13.450;2023-11-25T15:44:11;3.10;99.90
50556;DHT22;36508;52.512;13.450;2023-11-25T15:46:37;3.10;99.90
50556;DHT22;36508;52.512;13.450;2023-11-25T15:49:03;3.00;99.90